sensor_id;sensor_type;location;lat;lon;timestamp;P1;durP1;ratioP1;P2;durP2;ratioP2
69953;SDS011;57276;51.364;12.376;2022-12-11T00:02:21;10.52;;;5.07;;
69953;SDS011;57276;51.364;12.376;2022-12-11T00:08:23;11.90;;;4.97;;
69953;SDS011;57276;51.364;12.376;2022-12-11T00:14:24;13.57;;;5.27;;
69953;SDS011;57276;51.364;12.376;2022-12-11T00:20:26;20.00;;;5.65;;
69953;SDS011;57276;51.364;12.376;2022-12-11T00:26:28;11.57;;;5.10;;
69953;SDS011;57276;51.364;12.376;2022-12-11T00:32:30;13.65;;;5.80;;
69953;SDS011;57276;51.364;12.376;2022-12-11T00:38:38;13.32;;;5.35;;
69953;SDS011;57276;51.364;12.376;2022-12-11T00:44:39;10.87;;;4.80;;
69953;SDS011;57276;51.364;12.376;2022-12-11T00:50:41;12.77;;;5.53;;
69953;SDS011;57276;51.364;12.376;2022-12-11T00:56:42;10.87;;;4.70;;
69953;SDS011;57276;51.364;12.376;2022-12-11T01:02:44;10.73;;;4.32;;
69953;SDS011;57276;51.364;12.376;2022-12-11T01:08:45;10.88;;;4.82;;
69953;SDS011;57276;51.364;12.376;2022-12-11T01:14:47;12.30;;;5.07;;
69953;SDS011;57276;51.364;12.376;2022-12-11T01:20:49;10.77;;;4.25;;
69953;SDS011;57276;51.364;12.376;2022-12-11T01:26:50;10.83;;;4.70;;
69953;SDS011;57276;51.364;12.376;2022-12-11T01:32:52;13.38;;;4.72;;
69953;SDS011;57276;51.364;12.376;2022-12-11T01:38:53;11.40;;;4.60;;
69953;SDS011;57276;51.364;12.376;2022-12-11T01:45:14;12.43;;;4.80;;
69953;SDS011;57276;51.364;12.376;2022-12-11T01:51:16;11.63;;;4.63;;
69953;SDS011;57276;51.364;12.376;2022-12-11T01:57:18;12.47;;;4.90;;
69953;SDS011;57276;51.364;12.376;2022-12-11T02:03:20;10.95;;;4.55;;
69953;SDS011;57276;51.364;12.376;2022-12-11T02:09:26;11.23;;;4.70;;
69953;SDS011;57276;51.364;12.376;2022-12-11T02:15:43;14.17;;;5.47;;
69953;SDS011;57276;51.364;12.376;2022-12-11T02:21:49;12.55;;;4.90;;
69953;SDS011;57276;51.364;12.376;2022-12-11T02:28:15;12.03;;;5.40;;
69953;SDS011;57276;51.364;12.376;2022-12-11T02:34:17;13.68;;;5.03;;
69953;SDS011;57276;51.364;12.376;2022-12-11T02:40:20;16.10;;;5.15;;
69953;SDS011;57276;51.364;12.376;2022-12-11T02:46:23;10.73;;;5.23;;
69953;SDS011;57276;51.364;12.376;2022-12-11T02:52:25;12.43;;;5.30;;
69953;SDS011;57276;51.364;12.376;2022-12-11T02:58:31;13.80;;;5.70;;
69953;SDS011;57276;51.364;12.376;2022-12-11T03:04:34;12.13;;;5.07;;
69953;SDS011;57276;51.364;12.376;2022-12-11T03:10:36;12.93;;;5.63;;
69953;SDS011;57276;51.364;12.376;2022-12-11T03:16:40;13.80;;;5.20;;
69953;SDS011;57276;51.364;12.376;2022-12-11T03:22:47;16.45;;;6.00;;
69953;SDS011;57276;51.364;12.376;2022-12-11T03:28:55;12.17;;;5.50;;
69953;SDS011;57276;51.364;12.376;2022-12-11T03:34:59;12.15;;;5.35;;
69953;SDS011;57276;51.364;12.376;2022-12-11T03:41:03;12.98;;;5.95;;
69953;SDS011;57276;51.364;12.376;2022-12-11T03:47:06;15.70;;;5.77;;
69953;SDS011;57276;51.364;12.376;2022-12-11T03:53:08;11.70;;;5.47;;
69953;SDS011;57276;51.364;12.376;2022-12-11T03:59:10;12.40;;;5.97;;
69953;SDS011;57276;51.364;12.376;2022-12-11T04:05:12;13.13;;;5.40;;
69953;SDS011;57276;51.364;12.376;2022-12-11T04:11:14;13.52;;;5.47;;
69953;SDS011;57276;51.364;12.376;2022-12-11T04:17:35;11.17;;;5.30;;
69953;SDS011;57276;51.364;12.376;2022-12-11T04:23:55;13.55;;;5.90;;
69953;SDS011;57276;51.364;12.376;2022-12-11T04:30:22;12.07;;;5.13;;
69953;SDS011;57276;51.364;12.376;2022-12-11T04:36:24;12.45;;;4.82;;
69953;SDS011;57276;51.364;12.376;2022-12-11T04:42:25;12.35;;;5.28;;
69953;SDS011;57276;51.364;12.376;2022-12-11T04:48:27;11.37;;;4.60;;
69953;SDS011;57276;51.364;12.376;2022-12-11T04:54:29;10.95;;;5.30;;
69953;SDS011;57276;51.364;12.376;2022-12-11T05:00:31;11.30;;;4.77;;
69953;SDS011;57276;51.364;12.376;2022-12-11T05:06:32;11.73;;;4.97;;
69953;SDS011;57276;51.364;12.376;2022-12-11T05:12:34;10.77;;;4.25;;
69953;SDS011;57276;51.364;12.376;2022-12-11T05:18:35;9.87;;;4.13;;
69953;SDS011;57276;51.364;12.376;2022-12-11T05:24:37;12.07;;;5.00;;
69953;SDS011;57276;51.364;12.376;2022-12-11T05:30:39;10.50;;;4.17;;
69953;SDS011;57276;51.364;12.376;2022-12-11T05:36:40;16.42;;;4.95;;
69953;SDS011;57276;51.364;12.376;2022-12-11T05:42:42;10.75;;;4.88;;
69953;SDS011;57276;51.364;12.376;2022-12-11T05:48:44;12.00;;;4.77;;
69953;SDS011;57276;51.364;12.376;2022-12-11T05:54:47;12.55;;;4.88;;
69953;SDS011;57276;51.364;12.376;2022-12-11T06:00:49;13.03;;;4.60;;
69953;SDS011;57276;51.364;12.376;2022-12-11T06:06:54;10.32;;;4.70;;
69953;SDS011;57276;51.364;12.376;2022-12-11T06:12:55;10.48;;;4.53;;
69953;SDS011;57276;51.364;12.376;2022-12-11T06:18:57;8.80;;;3.83;;
69953;SDS011;57276;51.364;12.376;2022-12-11T06:24:59;9.18;;;3.72;;
69953;SDS011;57276;51.364;12.376;2022-12-11T06:31:00;13.30;;;4.33;;
69953;SDS011;57276;51.364;12.376;2022-12-11T06:37:02;12.27;;;3.95;;
69953;SDS011;57276;51.364;12.376;2022-12-11T06:43:04;10.98;;;3.75;;
69953;SDS011;57276;51.364;12.376;2022-12-11T06:49:05;10.33;;;3.60;;
69953;SDS011;57276;51.364;12.376;2022-12-11T06:55:08;11.43;;;4.60;;
69953;SDS011;57276;51.364;12.376;2022-12-11T07:01:15;8.50;;;3.73;;
69953;SDS011;57276;51.364;12.376;2022-12-11T07:07:16;8.60;;;3.38;;
69953;SDS011;57276;51.364;12.376;2022-12-11T07:13:20;11.35;;;4.38;;
69953;SDS011;57276;51.364;12.376;2022-12-11T07:19:21;8.40;;;3.43;;
69953;SDS011;57276;51.364;12.376;2022-12-11T07:25:23;12.00;;;4.57;;
69953;SDS011;57276;51.364;12.376;2022-12-11T07:31:25;9.13;;;3.97;;
69953;SDS011;57276;51.364;12.376;2022-12-11T07:37:27;12.40;;;4.35;;
69953;SDS011;57276;51.364;12.376;2022-12-11T07:43:28;10.23;;;4.22;;
69953;SDS011;57276;51.364;12.376;2022-12-11T07:49:30;11.57;;;4.40;;
69953;SDS011;57276;51.364;12.376;2022-12-11T07:55:32;10.02;;;4.00;;
69953;SDS011;57276;51.364;12.376;2022-12-11T08:01:34;9.57;;;3.70;;
69953;SDS011;57276;51.364;12.376;2022-12-11T08:07:36;10.27;;;4.05;;
69953;SDS011;57276;51.364;12.376;2022-12-11T08:13:38;10.10;;;3.53;;
69953;SDS011;57276;51.364;12.376;2022-12-11T08:19:40;8.47;;;3.67;;
69953;SDS011;57276;51.364;12.376;2022-12-11T08:25:41;10.60;;;3.63;;
69953;SDS011;57276;51.364;12.376;2022-12-11T08:31:43;11.43;;;4.90;;
69953;SDS011;57276;51.364;12.376;2022-12-11T08:37:45;12.40;;;4.50;;
69953;SDS011;57276;51.364;12.376;2022-12-11T08:43:46;12.20;;;4.60;;
69953;SDS011;57276;51.364;12.376;2022-12-11T08:49:48;11.13;;;3.87;;
69953;SDS011;57276;51.364;12.376;2022-12-11T08:55:50;11.13;;;4.78;;
69953;SDS011;57276;51.364;12.376;2022-12-11T09:01:53;11.13;;;4.47;;
69953;SDS011;57276;51.364;12.376;2022-12-11T09:07:54;12.18;;;4.55;;
69953;SDS011;57276;51.364;12.376;2022-12-11T09:13:56;9.57;;;3.45;;
69953;SDS011;57276;51.364;12.376;2022-12-11T09:20:06;10.33;;;4.57;;
69953;SDS011;57276;51.364;12.376;2022-12-11T09:26:08;12.40;;;4.13;;
69953;SDS011;57276;51.364;12.376;2022-12-11T09:32:11;11.20;;;4.33;;
69953;SDS011;57276;51.364;12.376;2022-12-11T09:38:12;10.20;;;4.43;;
69953;SDS011;57276;51.364;12.376;2022-12-11T09:50:27;12.77;;;4.40;;
69953;SDS011;57276;51.364;12.376;2022-12-11T09:56:35;11.13;;;4.78;;
69953;SDS011;57276;51.364;12.376;2022-12-11T10:02:44;12.40;;;4.70;;
69953;SDS011;57276;51.364;12.376;2022-12-11T10:15:25;10.90;;;4.13;;
69953;SDS011;57276;51.364;12.376;2022-12-11T10:21:37;13.30;;;4.77;;
69953;SDS011;57276;51.364;12.376;2022-12-11T10:27:40;10.90;;;4.38;;
69953;SDS011;57276;51.364;12.376;2022-12-11T10:39:46;10.75;;;4.38;;
69953;SDS011;57276;51.364;12.376;2022-12-11T10:45:49;12.93;;;3.90;;
69953;SDS011;57276;51.364;12.376;2022-12-11T10:51:53;11.63;;;4.43;;
69953;SDS011;57276;51.364;12.376;2022-12-11T10:57:56;13.95;;;4.82;;
69953;SDS011;57276;51.364;12.376;2022-12-11T11:04:03;11.63;;;4.80;;
69953;SDS011;57276;51.364;12.376;2022-12-11T11:16:11;11.85;;;4.47;;
69953;SDS011;57276;51.364;12.376;2022-12-11T11:22:14;12.43;;;5.47;;
69953;SDS011;57276;51.364;12.376;2022-12-11T11:28:21;13.75;;;4.72;;
69953;SDS011;57276;51.364;12.376;2022-12-11T11:34:23;13.77;;;5.20;;
69953;SDS011;57276;51.364;12.376;2022-12-11T11:40:30;16.45;;;5.57;;
69953;SDS011;57276;51.364;12.376;2022-12-11T11:46:34;12.45;;;4.68;;
69953;SDS011;57276;51.364;12.376;2022-12-11T11:52:40;13.60;;;5.33;;
69953;SDS011;57276;51.364;12.376;2022-12-11T11:58:46;13.32;;;4.60;;
69953;SDS011;57276;51.364;12.376;2022-12-11T12:04:48;14.37;;;5.30;;
69953;SDS011;57276;51.364;12.376;2022-12-11T12:17:10;11.82;;;4.90;;
69953;SDS011;57276;51.364;12.376;2022-12-11T12:35:34;15.80;;;5.93;;
69953;SDS011;57276;51.364;12.376;2022-12-11T12:41:54;14.02;;;5.53;;
69953;SDS011;57276;51.364;12.376;2022-12-11T12:48:06;16.02;;;5.75;;
69953;SDS011;57276;51.364;12.376;2022-12-11T12:54:09;15.83;;;6.07;;
69953;SDS011;57276;51.364;12.376;2022-12-11T13:00:24;15.63;;;6.15;;
69953;SDS011;57276;51.364;12.376;2022-12-11T13:06:33;15.13;;;6.40;;
69953;SDS011;57276;51.364;12.376;2022-12-11T13:12:42;15.20;;;6.53;;
69953;SDS011;57276;51.364;12.376;2022-12-11T13:18:44;13.52;;;5.60;;
69953;SDS011;57276;51.364;12.376;2022-12-11T13:30:55;14.10;;;4.90;;
69953;SDS011;57276;51.364;12.376;2022-12-11T13:36:58;13.17;;;5.43;;
69953;SDS011;57276;51.364;12.376;2022-12-11T13:43:03;14.20;;;5.70;;
69953;SDS011;57276;51.364;12.376;2022-12-11T13:49:06;15.50;;;6.85;;
69953;SDS011;57276;51.364;12.376;2022-12-11T13:55:22;15.63;;;6.50;;
69953;SDS011;57276;51.364;12.376;2022-12-11T14:01:31;14.80;;;5.85;;
69953;SDS011;57276;51.364;12.376;2022-12-11T14:07:34;12.17;;;5.07;;
69953;SDS011;57276;51.364;12.376;2022-12-11T14:13:38;15.50;;;6.22;;
69953;SDS011;57276;51.364;12.376;2022-12-11T14:19:44;16.10;;;5.90;;
69953;SDS011;57276;51.364;12.376;2022-12-11T14:25:53;15.60;;;5.90;;
69953;SDS011;57276;51.364;12.376;2022-12-11T14:31:56;15.75;;;6.13;;
69953;SDS011;57276;51.364;12.376;2022-12-11T14:38:00;14.10;;;6.43;;
69953;SDS011;57276;51.364;12.376;2022-12-11T14:44:03;15.18;;;6.38;;
69953;SDS011;57276;51.364;12.376;2022-12-11T14:50:22;16.73;;;6.53;;
69953;SDS011;57276;51.364;12.376;2022-12-11T14:56:26;14.63;;;5.50;;
69953;SDS011;57276;51.364;12.376;2022-12-11T15:02:30;15.48;;;5.80;;
69953;SDS011;57276;51.364;12.376;2022-12-11T15:08:33;17.50;;;6.73;;
69953;SDS011;57276;51.364;12.376;2022-12-11T15:14:39;16.50;;;6.97;;
69953;SDS011;57276;51.364;12.376;2022-12-11T15:20:40;14.63;;;5.43;;
69953;SDS011;57276;51.364;12.376;2022-12-11T15:26:45;16.70;;;6.83;;
69953;SDS011;57276;51.364;12.376;2022-12-11T15:32:48;13.30;;;5.53;;
69953;SDS011;57276;51.364;12.376;2022-12-11T15:38:49;13.63;;;5.53;;
69953;SDS011;57276;51.364;12.376;2022-12-11T15:44:51;18.52;;;6.57;;
69953;SDS011;57276;51.364;12.376;2022-12-11T15:50:53;15.13;;;5.55;;
69953;SDS011;57276;51.364;12.376;2022-12-11T15:56:54;14.20;;;5.50;;
69953;SDS011;57276;51.364;12.376;2022-12-11T16:02:56;22.80;;;7.82;;
69953;SDS011;57276;51.364;12.376;2022-12-11T16:08:58;17.43;;;7.00;;
69953;SDS011;57276;51.364;12.376;2022-12-11T16:15:00;13.15;;;5.47;;
69953;SDS011;57276;51.364;12.376;2022-12-11T16:21:03;17.50;;;6.30;;
69953;SDS011;57276;51.364;12.376;2022-12-11T16:27:05;19.80;;;7.13;;
69953;SDS011;57276;51.364;12.376;2022-12-11T16:33:07;16.92;;;6.45;;
69953;SDS011;57276;51.364;12.376;2022-12-11T16:39:13;17.03;;;7.10;;
69953;SDS011;57276;51.364;12.376;2022-12-11T16:45:16;15.52;;;6.63;;
69953;SDS011;57276;51.364;12.376;2022-12-11T16:51:18;16.25;;;6.25;;
69953;SDS011;57276;51.364;12.376;2022-12-11T16:57:19;19.23;;;6.60;;
69953;SDS011;57276;51.364;12.376;2022-12-11T17:03:21;14.63;;;5.63;;
69953;SDS011;57276;51.364;12.376;2022-12-11T17:09:22;14.67;;;5.83;;
69953;SDS011;57276;51.364;12.376;2022-12-11T17:15:24;20.48;;;6.15;;
69953;SDS011;57276;51.364;12.376;2022-12-11T17:21:25;36.47;;;7.15;;
69953;SDS011;57276;51.364;12.376;2022-12-11T17:27:27;15.37;;;6.10;;
69953;SDS011;57276;51.364;12.376;2022-12-11T17:33:29;15.38;;;6.03;;
69953;SDS011;57276;51.364;12.376;2022-12-11T17:39:30;17.10;;;6.20;;
69953;SDS011;57276;51.364;12.376;2022-12-11T17:45:32;18.33;;;6.80;;
69953;SDS011;57276;51.364;12.376;2022-12-11T17:51:33;21.33;;;6.72;;
69953;SDS011;57276;51.364;12.376;2022-12-11T17:57:35;21.33;;;7.57;;
69953;SDS011;57276;51.364;12.376;2022-12-11T18:03:38;18.15;;;6.53;;
69953;SDS011;57276;51.364;12.376;2022-12-11T18:09:40;19.93;;;7.83;;
69953;SDS011;57276;51.364;12.376;2022-12-11T18:15:42;21.33;;;7.03;;
69953;SDS011;57276;51.364;12.376;2022-12-11T18:21:44;17.65;;;6.95;;
69953;SDS011;57276;51.364;12.376;2022-12-11T18:27:46;20.07;;;6.63;;
69953;SDS011;57276;51.364;12.376;2022-12-11T18:33:47;17.33;;;7.25;;
69953;SDS011;57276;51.364;12.376;2022-12-11T18:39:49;18.00;;;6.67;;
69953;SDS011;57276;51.364;12.376;2022-12-11T18:45:51;19.92;;;6.68;;
69953;SDS011;57276;51.364;12.376;2022-12-11T18:51:53;20.35;;;7.45;;
69953;SDS011;57276;51.364;12.376;2022-12-11T18:57:54;20.23;;;7.03;;
69953;SDS011;57276;51.364;12.376;2022-12-11T19:03:56;22.30;;;7.93;;
69953;SDS011;57276;51.364;12.376;2022-12-11T19:10:04;20.57;;;7.73;;
69953;SDS011;57276;51.364;12.376;2022-12-11T19:16:06;21.05;;;6.97;;
69953;SDS011;57276;51.364;12.376;2022-12-11T19:22:08;21.05;;;7.50;;
69953;SDS011;57276;51.364;12.376;2022-12-11T19:28:11;23.67;;;7.53;;
69953;SDS011;57276;51.364;12.376;2022-12-11T19:34:13;23.15;;;6.82;;
69953;SDS011;57276;51.364;12.376;2022-12-11T19:40:15;22.17;;;7.00;;
69953;SDS011;57276;51.364;12.376;2022-12-11T19:46:18;19.80;;;7.78;;
69953;SDS011;57276;51.364;12.376;2022-12-11T19:52:20;20.75;;;7.85;;
69953;SDS011;57276;51.364;12.376;2022-12-11T19:58:22;27.67;;;8.50;;
69953;SDS011;57276;51.364;12.376;2022-12-11T20:04:24;24.20;;;7.93;;
69953;SDS011;57276;51.364;12.376;2022-12-11T20:10:25;18.63;;;7.43;;
69953;SDS011;57276;51.364;12.376;2022-12-11T20:16:27;24.38;;;8.20;;
69953;SDS011;57276;51.364;12.376;2022-12-11T20:22:56;22.40;;;7.95;;
69953;SDS011;57276;51.364;12.376;2022-12-11T20:28:59;21.03;;;7.37;;
69953;SDS011;57276;51.364;12.376;2022-12-11T20:35:00;25.90;;;8.70;;
69953;SDS011;57276;51.364;12.376;2022-12-11T20:41:05;18.57;;;8.37;;
69953;SDS011;57276;51.364;12.376;2022-12-11T20:47:09;23.50;;;9.38;;
69953;SDS011;57276;51.364;12.376;2022-12-11T20:53:11;23.67;;;8.50;;
69953;SDS011;57276;51.364;12.376;2022-12-11T20:59:13;25.77;;;8.47;;
69953;SDS011;57276;51.364;12.376;2022-12-11T21:05:14;24.65;;;8.68;;
69953;SDS011;57276;51.364;12.376;2022-12-11T21:11:16;23.30;;;8.63;;
69953;SDS011;57276;51.364;12.376;2022-12-11T21:17:18;31.63;;;10.65;;
69953;SDS011;57276;51.364;12.376;2022-12-11T21:23:19;25.08;;;9.73;;
69953;SDS011;57276;51.364;12.376;2022-12-11T21:29:22;24.87;;;9.57;;
69953;SDS011;57276;51.364;12.376;2022-12-11T21:35:23;23.73;;;9.10;;
69953;SDS011;57276;51.364;12.376;2022-12-11T21:41:25;21.27;;;8.60;;
69953;SDS011;57276;51.364;12.376;2022-12-11T21:47:27;20.05;;;7.93;;
69953;SDS011;57276;51.364;12.376;2022-12-11T21:53:29;23.27;;;8.23;;
69953;SDS011;57276;51.364;12.376;2022-12-11T21:59:30;22.07;;;8.13;;
69953;SDS011;57276;51.364;12.376;2022-12-11T22:05:32;22.48;;;8.77;;
69953;SDS011;57276;51.364;12.376;2022-12-11T22:11:34;28.10;;;9.20;;
69953;SDS011;57276;51.364;12.376;2022-12-11T22:17:35;25.90;;;9.77;;
69953;SDS011;57276;51.364;12.376;2022-12-11T22:23:37;24.85;;;7.75;;
69953;SDS011;57276;51.364;12.376;2022-12-11T22:29:39;22.17;;;7.77;;
69953;SDS011;57276;51.364;12.376;2022-12-11T22:35:41;25.55;;;8.18;;
69953;SDS011;57276;51.364;12.376;2022-12-11T22:41:42;20.07;;;8.00;;
69953;SDS011;57276;51.364;12.376;2022-12-11T22:47:44;22.25;;;6.88;;
69953;SDS011;57276;51.364;12.376;2022-12-11T22:53:45;17.95;;;6.90;;
69953;SDS011;57276;51.364;12.376;2022-12-11T22:59:47;25.60;;;7.50;;
69953;SDS011;57276;51.364;12.376;2022-12-11T23:05:49;24.15;;;8.65;;
69953;SDS011;57276;51.364;12.376;2022-12-11T23:11:51;24.03;;;7.37;;
69953;SDS011;57276;51.364;12.376;2022-12-11T23:17:53;24.13;;;8.18;;
69953;SDS011;57276;51.364;12.376;2022-12-11T23:23:54;21.38;;;7.80;;
69953;SDS011;57276;51.364;12.376;2022-12-11T23:29:56;21.10;;;7.57;;
69953;SDS011;57276;51.364;12.376;2022-12-11T23:35:57;19.40;;;7.18;;
69953;SDS011;57276;51.364;12.376;2022-12-11T23:41:59;22.33;;;8.43;;
69953;SDS011;57276;51.364;12.376;2022-12-11T23:48:01;24.33;;;7.82;;
69953;SDS011;57276;51.364;12.376;2022-12-11T23:54:02;22.75;;;7.53;;
